Time;durP1;ratioP1;P1;durP2;ratioP2;P2;SDS_P1;SDS_P2;PMS_P1;PMS_P2;Temp;Humidity;BMP_temperature;BMP_pressure;BME280_temperature;BME280_humidity;BME280_pressure;Samples;Min_cycle;Max_cycle;Signal;HPM_P1;HPM_P2
2021/05/20 00:02:07;;;;;;;2.23;1.53;;;9.30;99.90;;;;;;5016156;28;20787;-70
2021/05/20 00:04:33;;;;;;;2.50;1.97;;;9.20;99.90;;;;;;5032724;28;20252;-70
2021/05/20 00:06:58;;;;;;;2.70;2.00;;;9.30;99.90;;;;;;5032520;28;20671;-70
2021/05/20 00:09:24;;;;;;;3.03;2.13;;;9.20;99.90;;;;;;5032266;28;20559;-70
2021/05/20 00:11:49;;;;;;;3.33;2.00;;;9.20;99.90;;;;;;5033809;28;20182;-70
2021/05/20 00:14:15;;;;;;;2.73;2.07;;;9.10;99.90;;;;;;5033552;28;20232;-70
2021/05/20 00:16:40;;;;;;;2.87;2.03;;;9.10;99.90;;;;;;5015864;28;20184;-70
2021/05/20 00:19:07;;;;;;;3.90;2.17;;;9.10;99.90;;;;;;5033325;28;20224;-70
2021/05/20 00:21:33;;;;;;;4.93;1.80;;;9.10;99.90;;;;;;5032213;28;20202;-70
2021/05/20 00:23:58;;;;;;;3.10;1.90;;;9.10;99.90;;;;;;5015723;28;20235;-70
2021/05/20 00:26:24;;;;;;;4.80;1.90;;;9.10;99.90;;;;;;5032219;28;20181;-70
2021/05/20 00:28:50;;;;;;;2.90;1.87;;;9.00;99.90;;;;;;5031933;28;20196;-70
2021/05/20 00:31:15;;;;;;;3.07;1.80;;;9.00;99.90;;;;;;5033210;28;20189;-70
2021/05/20 00:33:41;;;;;;;3.27;2.07;;;8.90;99.90;;;;;;5032176;28;20250;-70
2021/05/20 00:36:06;;;;;;;2.60;2.00;;;8.90;99.90;;;;;;5031955;28;20600;-70
2021/05/20 00:38:33;;;;;;;2.67;1.77;;;8.90;99.90;;;;;;5031752;28;20714;-70
2021/05/20 00:41:01;;;;;;;2.03;1.83;;;8.80;99.90;;;;;;5031935;28;20173;-70
2021/05/20 00:43:27;;;;;;;2.80;2.10;;;8.80;99.90;;;;;;5032382;28;20197;-70
2021/05/20 00:45:53;;;;;;;2.37;1.97;;;8.80;99.90;;;;;;5015232;28;20175;-70
2021/05/20 00:48:19;;;;;;;4.03;1.90;;;8.70;99.90;;;;;;5015133;28;20228;-70
2021/05/20 00:50:44;;;;;;;2.40;1.87;;;8.80;99.90;;;;;;5031646;28;20652;-70
2021/05/20 00:53:11;;;;;;;2.80;2.03;;;8.80;99.90;;;;;;5031742;28;20226;-70
2021/05/20 00:55:37;;;;;;;3.50;1.83;;;8.70;99.90;;;;;;5015139;28;20205;-71
2021/05/20 00:58:03;;;;;;;3.50;2.27;;;8.60;99.90;;;;;;5015418;28;20249;-70
2021/05/20 01:00:28;;;;;;;2.10;1.70;;;8.60;99.90;;;;;;5031417;28;20256;-71
2021/05/20 01:02:54;;;;;;;3.70;2.27;;;8.50;99.90;;;;;;5031572;28;20178;-71
2021/05/20 01:05:19;;;;;;;4.23;2.00;;;8.50;99.90;;;;;;5031492;28;20243;-71
2021/05/20 01:07:45;;;;;;;2.97;2.10;;;8.50;99.90;;;;;;5031180;28;20202;-71
2021/05/20 01:10:11;;;;;;;3.43;2.30;;;8.50;99.90;;;;;;5032673;28;20184;-72
2021/05/20 01:12:36;;;;;;;3.33;2.00;;;8.50;99.90;;;;;;5031132;28;20287;-71
2021/05/20 01:15:02;;;;;;;2.43;2.00;;;8.40;99.90;;;;;;5031463;28;20183;-71
2021/05/20 01:17:28;;;;;;;2.07;1.83;;;8.40;99.90;;;;;;5032118;28;20242;-71
2021/05/20 01:19:54;;;;;;;3.20;2.20;;;8.40;99.90;;;;;;5031032;28;20199;-71
2021/05/20 01:22:19;;;;;;;1.63;1.53;;;8.40;99.90;;;;;;5031109;28;20639;-71
2021/05/20 01:24:45;;;;;;;2.20;1.80;;;8.30;99.90;;;;;;5031045;28;20184;-71
2021/05/20 01:27:11;;;;;;;2.47;2.13;;;8.30;99.90;;;;;;5030994;28;20646;-71
2021/05/20 01:29:38;;;;;;;3.47;2.10;;;8.20;99.90;;;;;;5030852;28;20206;-71
2021/05/20 01:32:04;;;;;;;2.33;2.10;;;8.20;99.90;;;;;;5031170;28;20201;-71
2021/05/20 01:34:32;;;;;;;2.20;1.80;;;8.20;99.90;;;;;;5032074;28;20644;-71
2021/05/20 01:36:59;;;;;;;2.83;2.00;;;8.20;99.90;;;;;;5031981;28;20187;-70
2021/05/20 01:39:25;;;;;;;2.40;2.03;;;8.10;99.90;;;;;;5030633;28;20214;-71
2021/05/20 01:41:50;;;;;;;3.03;2.40;;;8.10;99.90;;;;;;5032029;28;20178;-71
2021/05/20 01:44:16;;;;;;;2.50;1.93;;;8.10;99.90;;;;;;5031035;28;20175;-71
2021/05/20 01:46:41;;;;;;;2.93;2.20;;;8.10;99.90;;;;;;5014206;28;20210;-71
2021/05/20 01:49:10;;;;;;;3.73;2.40;;;8.10;99.90;;;;;;5030444;28;20204;-70
2021/05/20 01:51:35;;;;;;;4.37;2.13;;;8.00;99.90;;;;;;5031964;28;20218;-71
2021/05/20 01:54:01;;;;;;;4.20;2.20;;;8.00;99.90;;;;;;5027560;28;20210;-71
2021/05/20 01:56:27;;;;;;;3.60;2.03;;;8.00;99.90;;;;;;5031991;28;20547;-71
2021/05/20 01:58:53;;;;;;;4.53;2.47;;;8.00;99.90;;;;;;5046666;28;20202;-71
2021/05/20 02:01:18;;;;;;;2.90;2.10;;;7.90;99.90;;;;;;5014118;28;20184;-71
2021/05/20 02:03:44;;;;;;;2.87;2.37;;;7.90;99.90;;;;;;5047068;28;20183;-71
2021/05/20 02:06:10;;;;;;;3.87;2.23;;;7.90;99.90;;;;;;5030658;28;20171;-71
2021/05/20 02:08:36;;;;;;;3.23;2.10;;;7.90;99.90;;;;;;5030219;28;20231;-71
2021/05/20 02:11:02;;;;;;;2.40;1.90;;;7.80;99.90;;;;;;5047111;28;20184;-71
2021/05/20 02:13:28;;;;;;;2.80;2.10;;;7.80;99.90;;;;;;5033214;28;20221;-71
2021/05/20 02:15:54;;;;;;;4.53;2.27;;;7.80;99.90;;;;;;5051145;28;20210;-71
2021/05/20 02:18:19;;;;;;;4.23;2.37;;;7.70;99.90;;;;;;5050085;28;20203;-70
2021/05/20 02:20:45;;;;;;;3.30;2.37;;;7.70;99.90;;;;;;5034361;28;20209;-71
2021/05/20 02:23:11;;;;;;;2.47;2.10;;;7.70;99.90;;;;;;5035423;28;20649;-71
2021/05/20 02:25:37;;;;;;;3.20;2.27;;;7.60;99.90;;;;;;5034376;28;20182;-71
2021/05/20 02:28:03;;;;;;;4.03;2.10;;;7.60;99.90;;;;;;5017584;28;20580;-71
2021/05/20 02:30:28;;;;;;;2.90;2.13;;;7.60;99.90;;;;;;5047611;23;20227;-71
2021/05/20 02:32:54;;;;;;;2.73;2.30;;;7.60;99.90;;;;;;5015758;28;20178;-71
2021/05/20 02:35:20;;;;;;;2.87;2.00;;;7.60;99.90;;;;;;4998116;28;20179;-71
2021/05/20 02:37:46;;;;;;;2.63;2.10;;;7.50;99.90;;;;;;5014321;28;20251;-71
2021/05/20 02:40:12;;;;;;;4.23;2.47;;;7.50;99.90;;;;;;5013938;28;20302;-71
2021/05/20 02:42:38;;;;;;;4.03;2.40;;;7.50;99.90;;;;;;4998172;28;20226;-71
2021/05/20 02:45:05;;;;;;;3.20;2.20;;;7.50;99.90;;;;;;4997899;28;20178;-71
2021/05/20 02:47:31;;;;;;;3.33;2.07;;;7.50;99.90;;;;;;5014122;28;20258;-71
2021/05/20 02:49:56;;;;;;;3.20;2.23;;;7.40;99.90;;;;;;4997364;28;20290;-71
2021/05/20 02:52:22;;;;;;;4.10;2.13;;;7.40;99.90;;;;;;5014123;28;20179;-71
2021/05/20 02:54:47;;;;;;;3.03;2.00;;;7.40;99.90;;;;;;5015261;28;20195;-71
2021/05/20 02:57:13;;;;;;;4.30;2.30;;;7.40;99.90;;;;;;4981501;28;20176;-71
2021/05/20 02:59:38;;;;;;;3.10;2.33;;;7.30;99.90;;;;;;5013483;28;20303;-71
2021/05/20 03:02:05;;;;;;;4.07;2.67;;;7.30;99.90;;;;;;5013965;28;20212;-71
2021/05/20 03:04:31;;;;;;;3.77;2.60;;;7.30;99.90;;;;;;5015111;28;20547;-71
2021/05/20 03:06:57;;;;;;;3.07;2.10;;;7.30;99.90;;;;;;4997555;28;20164;-71
2021/05/20 03:09:23;;;;;;;3.33;2.40;;;7.20;99.90;;;;;;4997159;28;20658;-71
2021/05/20 03:11:48;;;;;;;3.83;2.17;;;7.30;99.90;;;;;;5015009;28;20206;-71
2021/05/20 03:14:14;;;;;;;2.83;1.97;;;7.20;99.90;;;;;;5013594;28;20175;-71
2021/05/20 03:16:39;;;;;;;2.90;1.93;;;7.20;99.90;;;;;;5013627;28;20241;-71
2021/05/20 03:19:05;;;;;;;4.83;2.47;;;7.20;99.90;;;;;;4997165;28;20742;-71
2021/05/20 03:21:31;;;;;;;4.33;2.70;;;7.30;99.90;;;;;;5014673;28;20192;-71
2021/05/20 03:23:56;;;;;;;5.63;2.93;;;7.30;99.90;;;;;;5012420;28;20175;-71
2021/05/20 03:26:22;;;;;;;6.23;2.97;;;7.40;99.90;;;;;;4997151;28;20299;-71
2021/05/20 03:28:47;;;;;;;4.43;2.57;;;7.40;99.90;;;;;;4996887;28;20176;-71
2021/05/20 03:31:13;;;;;;;4.07;2.57;;;7.50;99.90;;;;;;4996838;28;20214;-71
2021/05/20 03:33:41;;;;;;;3.97;2.93;;;7.50;99.90;;;;;;5013301;28;20191;-71
2021/05/20 03:36:06;;;;;;;6.47;2.93;;;7.60;99.90;;;;;;4997187;28;20167;-71
2021/05/20 03:38:32;;;;;;;5.63;3.00;;;7.60;99.90;;;;;;5013188;28;20320;-71
2021/05/20 03:41:00;;;;;;;4.00;2.90;;;7.60;99.90;;;;;;5014394;28;20196;-71
2021/05/20 03:43:26;;;;;;;3.73;2.60;;;7.70;99.90;;;;;;4996905;28;20168;-71
2021/05/20 03:45:51;;;;;;;6.03;2.90;;;7.70;99.90;;;;;;5013160;28;20184;-71
2021/05/20 03:48:17;;;;;;;4.07;3.00;;;7.80;99.90;;;;;;5012858;28;20167;-71
2021/05/20 03:50:43;;;;;;;5.07;3.07;;;7.80;99.90;;;;;;5013025;28;20729;-71
2021/05/20 03:53:08;;;;;;;4.00;2.77;;;7.80;99.90;;;;;;5014157;28;20179;-71
2021/05/20 03:55:34;;;;;;;4.30;3.20;;;7.80;99.90;;;;;;5014223;28;20179;-71
2021/05/20 03:57:59;;;;;;;3.50;2.90;;;7.90;99.90;;;;;;5012605;28;20198;-71
2021/05/20 04:00:25;;;;;;;6.07;2.93;;;7.80;99.90;;;;;;4980459;28;20212;-71
2021/05/20 04:02:50;;;;;;;4.33;2.90;;;7.80;99.90;;;;;;5012812;28;20167;-71
2021/05/20 04:05:16;;;;;;;4.40;2.80;;;7.80;99.90;;;;;;4996650;28;20544;-72
2021/05/20 04:07:41;;;;;;;4.07;3.17;;;7.80;99.90;;;;;;4980058;28;20180;-71
2021/05/20 04:10:08;;;;;;;4.37;3.07;;;7.80;99.90;;;;;;5012412;28;20191;-71
2021/05/20 04:12:34;;;;;;;3.93;2.73;;;7.80;99.90;;;;;;5012415;28;20581;-71
2021/05/20 04:14:59;;;;;;;3.43;2.77;;;7.80;99.90;;;;;;4980028;28;20262;-71
2021/05/20 04:17:25;;;;;;;4.70;2.97;;;7.80;99.90;;;;;;5012468;28;20207;-71
2021/05/20 04:19:51;;;;;;;5.30;2.80;;;7.80;99.90;;;;;;5013561;28;20215;-71
2021/05/20 04:22:16;;;;;;;3.07;2.47;;;7.80;99.90;;;;;;5012510;28;20270;-71
2021/05/20 04:24:42;;;;;;;3.23;2.47;;;7.80;99.90;;;;;;5013478;28;20182;-71
2021/05/20 04:27:07;;;;;;;3.57;2.73;;;7.80;99.90;;;;;;5012336;28;20175;-71
2021/05/20 04:29:33;;;;;;;3.50;2.80;;;7.90;99.90;;;;;;5012961;28;20203;-71
2021/05/20 04:31:58;;;;;;;6.47;3.30;;;8.00;99.90;;;;;;4996080;28;20497;-71
2021/05/20 04:34:24;;;;;;;3.13;2.80;;;7.90;99.90;;;;;;4979574;28;20191;-71
2021/05/20 04:36:49;;;;;;;4.80;3.20;;;8.00;99.90;;;;;;5011895;28;20179;-71
2021/05/20 04:39:15;;;;;;;3.60;2.93;;;8.00;99.90;;;;;;5011825;28;20282;-71
2021/05/20 04:41:40;;;;;;;4.17;3.20;;;8.00;99.90;;;;;;4995834;28;20179;-71
2021/05/20 04:44:06;;;;;;;3.90;2.90;;;8.00;99.90;;;;;;4995671;28;20174;-71
2021/05/20 04:46:32;;;;;;;4.13;2.80;;;8.10;99.90;;;;;;5013700;28;20616;-71
2021/05/20 04:48:57;;;;;;;4.37;3.00;;;8.20;99.90;;;;;;5011267;28;20179;-71
2021/05/20 04:51:23;;;;;;;3.33;3.03;;;8.20;99.90;;;;;;5011893;28;20282;-71
2021/05/20 04:53:50;;;;;;;4.80;3.77;;;8.20;99.90;;;;;;4995378;28;20275;-71
2021/05/20 04:56:22;;;;;;;6.03;3.87;;;8.20;99.90;;;;;;5011885;28;20576;-71
2021/05/20 04:58:48;;;;;;;5.00;4.00;;;8.20;99.90;;;;;;5011626;28;20160;-71
2021/05/20 05:01:13;;;;;;;5.03;3.23;;;8.20;99.90;;;;;;5012883;28;20201;-72
2021/05/20 05:03:39;;;;;;;4.63;3.13;;;8.20;99.90;;;;;;5011696;28;20673;-71
2021/05/20 05:06:04;;;;;;;6.07;4.23;;;8.30;99.90;;;;;;4995671;28;20609;-72
2021/05/20 05:08:30;;;;;;;5.70;4.30;;;8.30;99.90;;;;;;5011646;28;20651;-72
2021/05/20 05:10:55;;;;;;;6.27;3.87;;;8.50;99.90;;;;;;5011592;28;20203;-73
2021/05/20 05:13:21;;;;;;;5.70;4.00;;;8.50;99.90;;;;;;5012807;28;20272;-73
2021/05/20 05:15:47;;;;;;;7.20;4.13;;;8.40;99.90;;;;;;5011560;28;20279;-71
2021/05/20 05:18:12;;;;;;;6.53;4.57;;;8.50;99.90;;;;;;5011358;28;20207;-70
2021/05/20 05:20:38;;;;;;;5.70;4.30;;;8.70;99.90;;;;;;5011472;28;20299;-70
2021/05/20 05:23:04;;;;;;;7.50;4.10;;;8.80;99.90;;;;;;5012877;28;20238;-71
2021/05/20 05:25:30;;;;;;;7.97;4.43;;;8.80;99.90;;;;;;5011190;28;20176;-71
2021/05/20 05:27:55;;;;;;;7.13;4.40;;;8.80;99.90;;;;;;5012043;28;20242;-70
2021/05/20 05:30:21;;;;;;;7.07;4.47;;;8.80;99.90;;;;;;5011975;28;20226;-71
2021/05/20 05:32:46;;;;;;;5.97;4.57;;;8.80;99.90;;;;;;4994963;28;20275;-70
2021/05/20 05:35:12;;;;;;;5.97;4.07;;;8.80;99.90;;;;;;5011341;28;20232;-71
2021/05/20 05:37:37;;;;;;;7.07;4.00;;;8.90;99.90;;;;;;5012587;28;20726;-70
2021/05/20 05:40:04;;;;;;;8.77;4.67;;;8.80;99.90;;;;;;5012090;28;20216;-71
2021/05/20 05:42:30;;;;;;;7.20;4.67;;;8.80;99.90;;;;;;4994948;28;20635;-69
2021/05/20 05:44:56;;;;;;;7.20;4.60;;;8.70;99.90;;;;;;4995014;28;20185;-70
2021/05/20 05:47:21;;;;;;;5.53;4.37;;;8.70;99.90;;;;;;5010480;28;20659;-70
2021/05/20 05:49:50;;;;;;;6.40;4.43;;;8.80;99.90;;;;;;5010896;28;20206;-70
2021/05/20 05:52:23;;;;;;;7.47;4.67;;;8.80;99.90;;;;;;5011137;28;20168;-70
2021/05/20 05:54:48;;;;;;;8.20;4.90;;;8.90;99.90;;;;;;5011138;28;20171;-70
2021/05/20 05:57:14;;;;;;;6.63;4.57;;;9.00;99.90;;;;;;5011043;28;20172;-70
2021/05/20 05:59:40;;;;;;;9.80;5.30;;;9.00;99.90;;;;;;4994448;28;20694;-70
2021/05/20 06:02:05;;;;;;;7.87;5.17;;;9.00;99.90;;;;;;5010987;28;20172;-70
2021/05/20 06:04:31;;;;;;;9.83;5.33;;;9.10;99.90;;;;;;5012203;28;20579;-70
2021/05/20 06:06:56;;;;;;;7.50;5.50;;;9.20;99.90;;;;;;5010775;28;20175;-70
2021/05/20 06:09:22;;;;;;;9.87;5.07;;;9.20;99.90;;;;;;5010620;28;20212;-70
2021/05/20 06:11:48;;;;;;;8.10;5.17;;;9.20;99.90;;;;;;4991312;28;20670;-70
2021/05/20 06:14:13;;;;;;;8.70;5.13;;;9.10;99.90;;;;;;5009694;28;20231;-70
2021/05/20 06:16:40;;;;;;;7.93;5.20;;;9.10;99.90;;;;;;5010432;28;20322;-70
2021/05/20 06:19:07;;;;;;;8.67;5.70;;;9.20;99.90;;;;;;5010494;28;20195;-70
2021/05/20 06:21:32;;;;;;;10.57;5.37;;;9.20;99.90;;;;;;5011566;28;20226;-70
2021/05/20 06:23:58;;;;;;;8.50;6.07;;;9.20;99.90;;;;;;5010405;28;20569;-70
2021/05/20 06:26:24;;;;;;;8.53;5.33;;;9.30;99.90;;;;;;5010658;28;20184;-70
2021/05/20 06:28:50;;;;;;;9.23;5.40;;;9.40;99.90;;;;;;5010284;28;20596;-70
2021/05/20 06:31:16;;;;;;;9.00;5.83;;;9.50;99.90;;;;;;5011806;28;20221;-70
2021/05/20 06:33:41;;;;;;;9.20;6.27;;;9.50;99.90;;;;;;4994246;28;20734;-70
2021/05/20 06:36:07;;;;;;;9.80;6.00;;;9.60;99.90;;;;;;5010833;28;20226;-70
2021/05/20 06:38:32;;;;;;;8.33;5.53;;;9.60;99.90;;;;;;5010427;28;20769;-70
2021/05/20 06:41:00;;;;;;;10.53;6.37;;;9.70;99.90;;;;;;5010482;28;20447;-70
2021/05/20 06:43:26;;;;;;;9.40;6.27;;;9.70;99.90;;;;;;5010639;28;20176;-70
2021/05/20 06:45:51;;;;;;;10.33;6.63;;;9.70;99.90;;;;;;5010695;28;20171;-70
2021/05/20 06:48:17;;;;;;;11.77;6.53;;;9.70;99.90;;;;;;5010367;28;20172;-70
2021/05/20 06:50:43;;;;;;;10.67;6.43;;;9.70;99.90;;;;;;5010564;28;20245;-70
2021/05/20 06:53:09;;;;;;;14.00;7.53;;;9.70;99.90;;;;;;5010377;28;20631;-70
2021/05/20 06:55:35;;;;;;;10.33;5.63;;;9.70;99.90;;;;;;4993796;28;20183;-71
2021/05/20 07:00:31;;;;;;;9.73;6.27;;;9.80;99.90;;;;;;5014508;28;20247;-72
2021/05/20 07:02:57;;;;;;;11.97;6.23;;;9.90;99.90;;;;;;5013336;28;21837;-72
2021/05/20 07:05:23;;;;;;;10.97;6.70;;;9.90;99.90;;;;;;5013580;28;20180;-72
2021/05/20 07:07:48;;;;;;;12.20;6.70;;;9.90;99.90;;;;;;5013853;28;20167;-72
2021/05/20 07:10:14;;;;;;;12.97;7.50;;;9.90;99.90;;;;;;5013792;28;20322;-72
2021/05/20 07:12:39;;;;;;;14.27;7.37;;;10.00;99.90;;;;;;5013795;28;20653;-72
2021/05/20 07:15:06;;;;;;;13.53;7.17;;;10.00;99.90;;;;;;5014945;28;20212;-72
2021/05/20 07:17:31;;;;;;;13.00;6.70;;;10.10;99.90;;;;;;5013479;28;20657;-71
2021/05/20 07:19:57;;;;;;;15.00;8.03;;;10.30;99.90;;;;;;5013096;28;20215;-72
2021/05/20 07:22:22;;;;;;;14.53;7.83;;;10.40;99.90;;;;;;5013687;28;20254;-72
2021/05/20 07:24:48;;;;;;;12.80;7.00;;;10.50;99.90;;;;;;5013610;28;20171;-72
2021/05/20 07:27:13;;;;;;;14.60;8.30;;;10.50;99.90;;;;;;5013424;28;20207;-72
2021/05/20 07:29:39;;;;;;;15.90;7.53;;;10.50;99.90;;;;;;4996440;28;20690;-71
2021/05/20 07:32:06;;;;;;;17.10;8.07;;;10.50;99.90;;;;;;5014992;28;20171;-71
2021/05/20 07:34:33;;;;;;;16.20;8.47;;;10.60;99.90;;;;;;4997706;28;20640;-79
2021/05/20 07:36:59;;;;;;;18.10;8.27;;;10.60;99.90;;;;;;4997244;28;20178;-73
2021/05/20 07:39:24;;;;;;;16.70;8.60;;;10.60;99.90;;;;;;4997096;28;20233;-74
2021/05/20 07:41:50;;;;;;;18.57;8.37;;;10.70;99.90;;;;;;5013327;28;20178;-78
2021/05/20 07:44:15;;;;;;;16.20;8.20;;;10.70;99.90;;;;;;4997009;28;20171;-74
2021/05/20 07:46:41;;;;;;;19.50;9.20;;;10.70;99.90;;;;;;4997085;28;20292;-72
2021/05/20 07:49:07;;;;;;;18.73;9.13;;;10.80;99.90;;;;;;5013143;28;20188;-73
2021/05/20 07:51:32;;;;;;;17.23;8.00;;;10.90;99.90;;;;;;5014297;28;20665;-72
2021/05/20 07:53:58;;;;;;;20.03;7.63;;;11.10;99.90;;;;;;5013128;28;20187;-71
2021/05/20 07:56:23;;;;;;;18.80;8.30;;;11.30;99.90;;;;;;5013154;28;20183;-72
2021/05/20 07:58:53;;;;;;;19.40;7.67;;;11.20;99.90;;;;;;5012791;28;20269;-73
2021/05/20 08:01:19;;;;;;;19.80;8.57;;;11.30;99.90;;;;;;5012947;28;20190;-73
2021/05/20 08:03:51;;;;;;;19.03;8.90;;;11.20;99.90;;;;;;5012883;28;20177;-72
2021/05/20 08:06:21;;;;;;;17.90;8.97;;;11.30;99.90;;;;;;5014264;28;20156;-73
2021/05/20 08:09:02;;;;;;;21.20;9.73;;;11.40;99.90;;;;;;5012978;28;20178;-72
2021/05/20 08:11:29;;;;;;;14.90;8.73;;;11.50;99.90;;;;;;5013453;28;20190;-73
2021/05/20 08:13:55;;;;;;;17.47;8.73;;;11.70;99.90;;;;;;4996787;28;20561;-73
2021/05/20 08:16:21;;;;;;;18.57;9.33;;;11.90;99.90;;;;;;5014038;28;20190;-72
2021/05/20 08:18:46;;;;;;;19.33;9.53;;;12.00;99.90;;;;;;4996451;28;20225;-73
2021/05/20 08:21:12;;;;;;;24.83;10.10;;;12.20;99.90;;;;;;4996208;28;20198;-73
2021/05/20 08:23:37;;;;;;;17.17;9.40;;;12.20;99.90;;;;;;5013984;28;20183;-72
2021/05/20 08:26:03;;;;;;;19.40;9.13;;;12.40;99.90;;;;;;5012512;28;20175;-72
2021/05/20 08:28:29;;;;;;;23.30;9.97;;;12.30;99.90;;;;;;4996065;28;20168;-77
2021/05/20 08:30:55;;;;;;;19.53;9.67;;;12.10;99.90;;;;;;5037530;23;20248;-75
2021/05/20 08:33:20;;;;;;;19.63;8.43;;;12.10;99.90;;;;;;5032332;28;20174;-76
2021/05/20 08:35:46;;;;;;;19.70;8.80;;;12.20;99.90;;;;;;5016242;28;20173;-76
2021/05/20 08:38:14;;;;;;;18.00;8.77;;;12.10;99.90;;;;;;5032119;28;20249;-75
2021/05/20 08:40:39;;;;;;;16.93;8.50;;;12.00;99.90;;;;;;5015900;28;20707;-76
2021/05/20 08:43:05;;;;;;;18.57;9.37;;;12.00;99.90;;;;;;5015793;28;20178;-75
2021/05/20 08:45:31;;;;;;;16.80;8.47;;;12.00;99.90;;;;;;5022867;28;20187;-75
2021/05/20 08:47:57;;;;;;;17.57;8.67;;;12.10;99.90;;;;;;4995668;28;20175;-75
2021/05/20 08:50:25;;;;;;;18.90;9.83;;;12.30;99.90;;;;;;5031654;28;20282;-76
2021/05/20 08:52:51;;;;;;;15.70;8.47;;;12.40;99.90;;;;;;5031841;28;20159;-76
2021/05/20 08:55:18;;;;;;;18.57;8.30;;;12.50;99.90;;;;;;4999020;28;20249;-76
2021/05/20 08:57:44;;;;;;;17.93;8.37;;;12.60;99.90;;;;;;5015640;28;20232;-75
2021/05/20 09:00:20;;;;;;;14.20;8.27;;;12.70;99.90;;;;;;5015140;28;20206;-75
2021/05/20 09:02:46;;;;;;;15.03;8.10;;;12.90;99.90;;;;;;4984834;28;20189;-77
2021/05/20 09:05:12;;;;;;;16.83;8.23;;;13.20;99.90;;;;;;4989751;28;20549;-75
2021/05/20 09:07:39;;;;;;;14.53;7.40;;;13.50;99.90;;;;;;5033409;28;20249;-76
2021/05/20 09:10:35;;;;;;;14.17;7.20;;;13.80;99.90;;;;;;5015845;28;20289;-75
2021/05/20 09:13:05;;;;;;;15.67;8.00;;;14.00;99.90;;;;;;5029713;28;20705;-77
2021/05/20 09:15:34;;;;;;;12.27;7.13;;;14.10;99.90;;;;;;4999222;28;20185;-76
2021/05/20 09:18:20;;;;;;;13.97;7.20;;;13.90;99.90;;;;;;5019114;28;20183;-75
2021/05/20 09:20:57;;;;;;;11.27;6.70;;;14.20;99.90;;;;;;5011497;28;20269;-75
2021/05/20 09:23:28;;;;;;;15.80;8.67;;;14.50;99.90;;;;;;4995449;28;20151;-74
2021/05/20 09:26:05;;;;;;;14.43;7.70;;;14.60;99.90;;;;;;4995863;28;20642;-75
2021/05/20 09:28:38;;;;;;;12.50;7.00;;;14.90;99.90;;;;;;4979458;28;20618;-75
2021/05/20 09:31:04;;;;;;;13.03;6.93;;;;;;;;;;4980152;28;20219;-75
2021/05/20 09:33:30;;;;;;;12.40;7.17;;;;;;;;;;5011332;28;20546;-75
2021/05/20 09:35:56;;;;;;;8.50;5.83;;;;;;;;;;5012632;28;20266;-75
2021/05/20 09:38:22;;;;;;;12.43;6.37;;;;;;;;;;5011368;28;20237;-75
2021/05/20 09:40:51;;;;;;;13.23;7.47;;;;;;;;;;5011317;28;20218;-74
2021/05/20 09:43:21;;;;;;;13.40;7.70;;;;;;;;;;5011349;28;20202;-74
2021/05/20 09:45:47;;;;;;;16.67;8.60;;;;;;;;;;5012475;28;20178;-74
2021/05/20 09:48:13;;;;;;;16.17;8.07;;;;;;;;;;5012411;28;20207;-74
2021/05/20 09:50:44;;;;;;;15.33;8.10;;;;;;;;;;4994615;28;20567;-74
2021/05/20 09:53:10;;;;;;;18.93;8.47;;;;;;;;;;5011298;28;20176;-74
2021/05/20 09:55:36;;;;;;;13.70;7.00;;;;;;;;;;5012639;28;20630;-76
2021/05/20 09:58:09;;;;;;;17.07;6.83;;;;;;;;;;4994931;28;20187;-76
2021/05/20 10:00:36;;;;;;;13.83;6.27;;;;;;;;;;5010933;28;20584;-75
2021/05/20 10:03:09;;;;;;;13.10;6.60;;;;;;;;;;5010995;28;20172;-75
2021/05/20 10:05:35;;;;;;;13.03;6.23;;;;;;;;;;5011199;28;20188;-75
2021/05/20 10:08:03;;;;;;;12.53;6.27;;;;;;;;;;5012208;28;20179;-76
2021/05/20 10:10:29;;;;;;;11.80;6.23;;;;;;;;;;5012026;28;20199;-75
2021/05/20 10:12:55;;;;;;;11.50;6.37;;;;;;;;;;5022472;28;20221;-75
2021/05/20 10:15:22;;;;;;;12.80;6.60;;;;;;;;;;5030742;28;20183;-75
2021/05/20 10:17:48;;;;;;;14.77;6.83;;;;;;;;;;5030608;28;20183;-75
2021/05/20 10:20:15;;;;;;;13.77;6.43;;;;;;;;;;5030467;28;20206;-75
2021/05/20 10:22:41;;;;;;;12.53;6.33;;;;;;;;;;5010886;28;20233;-74
2021/05/20 10:25:08;;;;;;;12.10;5.73;;;;;;;;;;5010886;28;20175;-75
2021/05/20 10:27:35;;;;;;;12.57;6.33;;;;;;;;;;4994413;28;20187;-75
2021/05/20 10:30:01;;;;;;;17.50;6.60;;;;;;;;;;5011162;28;20245;-77
2021/05/20 10:32:27;;;;;;;17.33;6.60;;;;;;;;;;5030517;28;20218;-76
2021/05/20 10:35:02;;;;;;;13.37;6.13;;;;;;;;;;5034254;28;20203;-75
2021/05/20 10:37:36;;;;;;;12.67;6.53;;;;;;;;;;5029794;28;20187;-76
2021/05/20 10:40:04;;;;;;;15.93;7.20;;;;;;;;;;5006681;28;20306;-75
2021/05/20 10:42:39;;;;;;;12.57;6.13;;;;;;;;;;5015743;28;20587;-75
2021/05/20 10:45:14;;;;;;;15.27;6.33;;;;;;;;;;4998257;28;20175;-75
2021/05/20 10:47:59;;;;;;;12.10;6.43;;;;;;;;;;5024465;28;20254;-75
2021/05/20 10:50:45;;;;;;;14.97;8.73;;;;;;;;;;5035308;28;20207;-78
2021/05/20 10:53:11;;;;;;;20.23;8.63;;;;;;;;;;5035233;28;20178;-75
2021/05/20 10:55:37;;;;;;;16.13;8.27;;;;;;;;;;5023910;28;20234;-75
2021/05/20 10:58:03;;;;;;;15.80;8.00;;;;;;;;;;5013096;28;20187;-76
2021/05/20 11:00:29;;;;;;;15.37;7.20;;;;;;;;;;5014933;28;20749;-75
2021/05/20 11:02:55;;;;;;;13.63;7.27;;;;;;;;;;5015163;28;20250;-76
2021/05/20 11:05:47;;;;;;;13.47;7.30;;;;;;;;;;4994296;28;20188;-75
2021/05/20 11:08:29;;;;;;;17.80;8.33;;;;;;;;;;4995321;28;20733;-76
2021/05/20 11:10:55;;;;;;;15.70;8.03;;;;;;;;;;4994208;28;20200;-76
2021/05/20 11:13:36;;;;;;;14.33;7.03;;;;;;;;;;4994422;28;20169;-75
2021/05/20 11:16:12;;;;;;;17.10;7.90;;;;;;;;;;4995624;28;20264;-75
2021/05/20 11:18:38;;;;;;;20.37;9.63;;;;;;;;;;4995250;28;20355;-76
2021/05/20 11:21:05;;;;;;;17.97;9.10;;;;;;;;;;4995290;28;20776;-79
2021/05/20 11:23:31;;;;;;;19.80;9.17;;;;;;;;;;5001499;28;20665;-77
2021/05/20 11:26:20;;;;;;;19.80;9.07;;;;;;;;;;5013506;28;20713;-76
2021/05/20 11:28:47;;;;;;;19.10;8.50;;;;;;;;;;5011756;28;20557;-75
2021/05/20 11:31:13;;;;;;;17.83;8.07;;;;;;;;;;5014657;28;20638;-79
2021/05/20 11:33:52;;;;;;;18.17;7.83;;;;;;;;;;5013628;28;20183;-78
2021/05/20 11:36:18;;;;;;;16.93;8.10;;;;;;;;;;4999319;28;20274;-76
2021/05/20 11:39:00;;;;;;;16.47;7.73;;;;;;;;;;4997605;28;20179;-78
2021/05/20 11:41:26;;;;;;;16.73;8.67;;;;;;;;;;5031627;28;20674;-77
2021/05/20 11:44:05;;;;;;;15.80;7.87;;;;;;;;;;5034864;28;20175;-79
2021/05/20 11:46:31;;;;;;;12.77;6.60;;;;;;;;;;5038554;28;20175;-79
2021/05/20 11:49:01;;;;;;;10.53;5.30;;;;;;;;;;5023835;28;20182;-78
2021/05/20 11:51:40;;;;;;;10.70;5.70;;;;;;;;;;5036065;28;20195;-79
2021/05/20 11:54:10;;;;;;;11.67;6.23;;;;;;;;;;5037309;28;20179;-80
2021/05/20 11:56:39;;;;;;;10.87;6.10;;;;;;;;;;5036488;28;20193;-77
2021/05/20 11:59:05;;;;;;;10.67;5.70;;;;;;;;;;5034960;28;20182;-77
2021/05/20 12:01:32;;;;;;;12.87;6.53;;;;;;;;;;5017421;28;20199;-78
2021/05/20 12:03:59;;;;;;;11.57;6.23;;;;;;;;;;5034413;28;20221;-79
2021/05/20 12:06:25;;;;;;;12.33;6.17;;;;;;;;;;5034677;28;20171;-82
2021/05/20 12:09:04;;;;;;;12.20;5.83;;;;;;;;;;5034386;28;20551;-78
2021/05/20 12:11:30;;;;;;;11.40;6.57;;;;;;;;;;5017295;28;20202;-80
2021/05/20 12:13:56;;;;;;;13.23;7.00;;;;;;;;;;5017555;28;20184;-79
2021/05/20 12:16:32;;;;;;;11.80;5.70;;;;;;;;;;5036542;28;20258;-80
2021/05/20 12:18:59;;;;;;;11.93;5.50;;;;;;;;;;5018294;28;20182;-79
2021/05/20 12:21:25;;;;;;;9.20;5.80;;;;;;;;;;5008074;28;20208;-77
2021/05/20 12:23:55;;;;;;;9.20;5.50;;;;;;;;;;5013818;28;20203;-79
2021/05/20 12:26:27;;;;;;;8.17;4.10;;;;;;;;;;4981327;28;20172;-80
2021/05/20 12:28:54;;;;;;;8.80;4.70;;;;;;;;;;4993341;28;20724;-78
2021/05/20 12:31:20;;;;;;;10.67;5.50;;;;;;;;;;4984118;28;20562;-78
2021/05/20 12:33:47;;;;;;;7.60;4.37;;;;;;;;;;4994758;28;20190;-78
2021/05/20 12:36:31;;;;;;;8.47;4.50;;;;;;;;;;5011952;28;20206;-79
2021/05/20 12:38:58;;;;;;;9.03;4.57;;;;;;;;;;5011678;28;20697;-76
2021/05/20 12:41:36;;;;;;;6.80;4.00;;;;;;;;;;4990537;28;20199;-77
2021/05/20 12:44:31;;;;;;;6.93;3.43;;;;;;;;;;5014117;28;20171;-77
2021/05/20 12:46:57;;;;;;;7.37;3.30;;;;;;;;;;4993159;28;20360;-77
2021/05/20 12:49:23;;;;;;;4.97;2.90;;;;;;;;;;4977743;28;20275;-78
2021/05/20 12:51:58;;;;;;;4.27;3.03;;;;;;;;;;5012685;28;20309;-77
2021/05/20 12:54:28;;;;;;;5.37;3.40;;;;;;;;;;5013588;28;20692;-78
2021/05/20 12:57:08;;;;;;;6.43;3.07;;;;;;;;;;4995764;28;20190;-76
2021/05/20 12:59:36;;;;;;;6.47;3.57;;;;;;;;;;4976239;28;20266;-77
2021/05/20 13:02:06;;;;;;;7.50;4.00;;;;;;;;;;4992261;28;20551;-77
2021/05/20 13:04:32;;;;;;;8.17;4.07;;;;;;;;;;5001678;28;20176;-77
2021/05/20 13:07:02;;;;;;;6.13;3.57;;;;;;;;;;5009567;28;20194;-77
2021/05/20 13:09:32;;;;;;;6.57;3.70;;;;;;;;;;5004927;28;20192;-77
2021/05/20 13:11:59;;;;;;;5.53;3.53;;;;;;;;;;4994254;28;20187;-78
2021/05/20 13:24:45;;;;;;;4.60;2.90;;;;;;;;;;5015428;28;20167;-78
2021/05/20 13:27:15;;;;;;;7.53;3.63;;;;;;;;;;4996769;28;20175;-78
2021/05/20 13:29:44;;;;;;;4.30;2.63;;;;;;;;;;5012092;28;20202;-76
2021/05/20 13:32:17;;;;;;;4.77;3.07;;;;;;;;;;4996536;28;20366;-78